createdAt,value
2019-03-18T00:00:06.966Z,996.60
2019-03-18T00:01:08.370Z,996.67
2019-03-18T00:02:09.754Z,996.68
2019-03-18T00:03:11.146Z,996.60
2019-03-18T00:04:12.534Z,996.66
2019-03-18T00:05:13.940Z,996.66
2019-03-18T00:06:15.334Z,996.64
2019-03-18T00:07:16.719Z,996.70
2019-03-18T00:08:18.112Z,996.66
2019-03-18T00:09:19.490Z,996.66
2019-03-18T00:10:20.882Z,996.71
2019-03-18T00:11:22.268Z,996.72
2019-03-18T00:12:23.650Z,996.70
2019-03-18T00:13:25.057Z,996.66
2019-03-18T00:14:26.509Z,996.72
2019-03-18T00:15:27.898Z,996.71
2019-03-18T00:16:29.292Z,996.76
2019-03-18T00:17:30.676Z,996.74
2019-03-18T00:18:32.069Z,996.78
2019-03-18T00:19:33.483Z,996.76
2019-03-18T00:20:35.822Z,996.74
2019-03-18T00:21:39.258Z,996.82
2019-03-18T00:22:40.706Z,996.82
2019-03-18T00:23:42.097Z,996.74
2019-03-18T00:24:43.488Z,996.82
2019-03-18T00:25:44.873Z,996.81
2019-03-18T00:26:46.282Z,996.80
2019-03-18T00:27:47.678Z,996.79
2019-03-18T00:28:49.512Z,996.73
2019-03-18T00:29:51.098Z,996.76
2019-03-18T00:30:52.513Z,996.73
2019-03-18T00:31:55.921Z,996.80
2019-03-18T00:32:57.670Z,996.74
2019-03-18T00:33:59.112Z,996.86
2019-03-18T00:35:00.535Z,996.81
2019-03-18T00:36:02.546Z,996.77
2019-03-18T00:37:03.936Z,996.80
2019-03-18T00:38:05.374Z,996.77
2019-03-18T00:39:07.213Z,996.76
2019-03-18T00:40:08.615Z,996.72
2019-03-18T00:41:10.017Z,996.75
2019-03-18T00:42:11.429Z,996.72
2019-03-18T00:43:12.875Z,996.70
2019-03-18T00:44:14.281Z,996.75
2019-03-18T00:45:15.935Z,996.77
2019-03-18T00:46:17.052Z,996.78
2019-03-18T00:47:18.484Z,996.70
2019-03-18T00:48:19.866Z,996.75
2019-03-18T00:49:21.256Z,996.69
2019-03-18T00:50:22.642Z,996.74
2019-03-18T00:51:24.077Z,996.78
2019-03-18T00:52:26.354Z,996.75
2019-03-18T00:53:27.766Z,996.74
2019-03-18T00:54:29.123Z,996.79
2019-03-18T00:55:30.524Z,996.78
2019-03-18T00:56:32.032Z,996.79
2019-03-18T00:57:33.422Z,996.75
2019-03-18T00:58:34.814Z,996.71
2019-03-18T00:59:36.216Z,996.72
2019-03-18T01:00:37.628Z,996.69
2019-03-18T01:01:39.069Z,996.67
2019-03-18T01:02:40.458Z,996.59
2019-03-18T01:03:41.843Z,996.72
2019-03-18T01:04:43.261Z,996.73
2019-03-18T01:05:44.643Z,996.59
2019-03-18T01:06:46.144Z,996.59
2019-03-18T01:07:47.525Z,996.61
2019-03-18T01:08:49.415Z,996.58
2019-03-18T01:09:50.819Z,996.63
2019-03-18T01:10:52.217Z,996.59
2019-03-18T01:11:53.612Z,996.57
2019-03-18T01:12:55.008Z,996.49
2019-03-18T01:13:56.429Z,996.57
2019-03-18T01:14:57.812Z,996.55
2019-03-18T01:15:59.212Z,996.54
2019-03-18T01:17:00.602Z,996.55
2019-03-18T01:18:02.004Z,996.66
2019-03-18T01:19:03.390Z,996.57
2019-03-18T01:20:04.795Z,996.63
2019-03-18T01:21:06.177Z,996.53
2019-03-18T01:22:07.572Z,996.66
2019-03-18T01:23:08.990Z,996.68
2019-03-18T01:24:10.364Z,996.57
2019-03-18T01:25:11.764Z,996.60
2019-03-18T01:26:13.150Z,996.57
2019-03-18T01:27:14.545Z,996.64
2019-03-18T01:28:15.931Z,996.59
2019-03-18T01:29:17.321Z,996.60
2019-03-18T01:30:18.701Z,996.59
2019-03-18T01:31:20.092Z,996.51
2019-03-18T01:32:21.479Z,996.47
2019-03-18T01:33:22.867Z,996.51
2019-03-18T01:34:24.266Z,996.37
2019-03-18T01:35:25.659Z,996.41
2019-03-18T01:36:27.049Z,996.40
2019-03-18T01:37:28.458Z,996.34
2019-03-18T01:38:29.875Z,996.33
2019-03-18T01:39:31.261Z,996.37
2019-03-18T01:40:32.647Z,996.42
2019-03-18T01:41:34.033Z,996.35
2019-03-18T01:42:35.421Z,996.31
2019-03-18T01:43:36.811Z,996.38
2019-03-18T01:44:38.211Z,996.36
2019-03-18T01:45:40.911Z,996.40
2019-03-18T01:46:40.957Z,996.34
2019-03-18T01:47:42.351Z,996.41
2019-03-18T01:48:43.741Z,996.24
2019-03-18T01:49:45.127Z,996.29
2019-03-18T01:50:46.518Z,996.24
2019-03-18T01:51:47.912Z,996.31
2019-03-18T01:52:49.316Z,996.22
2019-03-18T01:53:50.723Z,996.25
2019-03-18T01:54:52.124Z,996.28
2019-03-18T01:55:53.532Z,996.29
2019-03-18T01:56:54.923Z,996.34
2019-03-18T01:57:56.310Z,996.27
2019-03-18T01:58:57.701Z,996.29
2019-03-18T01:59:59.123Z,996.31
2019-03-18T02:01:00.480Z,996.38
2019-03-18T02:02:01.901Z,996.32
2019-03-18T02:03:03.295Z,996.39
2019-03-18T02:04:04.696Z,996.31
2019-03-18T02:05:06.082Z,996.33
2019-03-18T02:06:07.483Z,996.35
2019-03-18T02:07:08.864Z,996.36
2019-03-18T02:08:10.255Z,996.31
2019-03-18T02:09:11.654Z,996.27
2019-03-18T02:10:13.033Z,996.34
2019-03-18T02:11:14.426Z,996.38
2019-03-18T02:12:15.826Z,996.28
2019-03-18T02:13:17.210Z,996.36
2019-03-18T02:14:18.619Z,996.40
2019-03-18T02:15:20.013Z,996.38
2019-03-18T02:16:21.412Z,996.50
2019-03-18T02:17:22.810Z,996.21
2019-03-18T02:18:24.194Z,996.34
2019-03-18T02:19:25.588Z,996.43
2019-03-18T02:20:26.983Z,996.46
2019-03-18T02:21:28.376Z,996.30
2019-03-18T02:22:29.768Z,996.33
2019-03-18T02:23:31.161Z,996.48
2019-03-18T02:24:32.540Z,996.33
2019-03-18T02:25:33.935Z,996.30
2019-03-18T02:26:35.382Z,996.34
2019-03-18T02:27:36.709Z,996.35
2019-03-18T02:28:38.092Z,996.35
2019-03-18T02:29:39.481Z,996.40
2019-03-18T02:30:40.882Z,996.43
2019-03-18T02:31:42.267Z,996.40
2019-03-18T02:32:43.672Z,996.50
2019-03-18T02:33:45.075Z,996.39
2019-03-18T02:34:46.477Z,996.47
2019-03-18T02:35:47.858Z,996.38
2019-03-18T02:36:49.222Z,996.44
2019-03-18T02:37:50.618Z,996.40
2019-03-18T02:38:51.996Z,996.42
2019-03-18T02:39:53.392Z,996.44
2019-03-18T02:40:54.823Z,996.43
2019-03-18T02:41:56.212Z,996.44
2019-03-18T02:42:57.616Z,996.40
2019-03-18T02:43:59.019Z,996.38
2019-03-18T02:45:00.510Z,996.40
2019-03-18T02:46:10.067Z,996.49
2019-03-18T02:47:03.153Z,996.47
2019-03-18T02:48:04.570Z,996.50
2019-03-18T02:49:05.961Z,996.55
2019-03-18T02:50:07.357Z,996.54
2019-03-18T02:51:08.751Z,996.54
2019-03-18T02:52:10.146Z,996.50
2019-03-18T02:53:11.533Z,996.60
2019-03-18T02:54:12.940Z,996.53
2019-03-18T02:55:14.336Z,996.62
2019-03-18T02:56:15.741Z,996.58
2019-03-18T02:57:17.125Z,996.74
2019-03-18T02:58:18.515Z,996.74
2019-03-18T02:59:19.901Z,996.66
2019-03-18T03:00:21.296Z,996.56
2019-03-18T03:01:22.671Z,996.57
2019-03-18T03:02:24.076Z,996.60
2019-03-18T03:03:25.452Z,996.57
2019-03-18T03:04:26.844Z,996.59
2019-03-18T03:05:28.237Z,996.54
2019-03-18T03:06:29.628Z,996.53
2019-03-18T03:07:31.036Z,996.45
2019-03-18T03:08:32.425Z,996.56
2019-03-18T03:09:33.821Z,996.53
2019-03-18T03:10:35.207Z,996.53
2019-03-18T03:11:36.609Z,996.51
2019-03-18T03:12:37.985Z,996.53
2019-03-18T03:13:39.382Z,996.49
2019-03-18T03:14:40.769Z,996.60
2019-03-18T03:15:42.173Z,996.63
2019-03-18T03:16:43.604Z,996.51
2019-03-18T03:17:44.953Z,996.59
2019-03-18T03:18:46.351Z,996.59
2019-03-18T03:19:47.729Z,996.62
2019-03-18T03:20:49.125Z,996.48
2019-03-18T03:21:50.513Z,996.50
2019-03-18T03:22:51.899Z,996.57
2019-03-18T03:23:53.293Z,996.57
2019-03-18T03:24:54.684Z,996.50
2019-03-18T03:25:56.086Z,996.51
2019-03-18T03:26:57.504Z,996.58
2019-03-18T03:27:58.913Z,996.56
2019-03-18T03:29:00.303Z,996.55
2019-03-18T03:30:01.729Z,996.60
2019-03-18T03:31:03.094Z,996.57
2019-03-18T03:32:04.489Z,996.54
2019-03-18T03:33:05.880Z,996.51
2019-03-18T03:34:12.995Z,996.50
2019-03-18T03:35:08.598Z,996.57
2019-03-18T03:36:10.012Z,996.55
2019-03-18T03:37:11.395Z,996.55
2019-03-18T03:38:12.771Z,996.62
2019-03-18T03:39:14.178Z,996.65
2019-03-18T03:40:15.582Z,996.61
2019-03-18T03:41:18.010Z,996.64
2019-03-18T03:42:18.334Z,996.64
2019-03-18T03:43:19.739Z,996.68
2019-03-18T03:44:21.133Z,996.58
2019-03-18T03:45:22.520Z,996.63
2019-03-18T03:46:23.912Z,996.68
2019-03-18T03:47:25.949Z,996.71
2019-03-18T03:48:27.361Z,996.68
2019-03-18T03:49:28.742Z,996.70
2019-03-18T03:50:30.128Z,996.73
2019-03-18T03:51:31.522Z,996.74
2019-03-18T03:52:32.921Z,996.66
2019-03-18T03:53:34.302Z,996.61
2019-03-18T03:54:35.725Z,996.69
2019-03-18T03:55:37.147Z,996.61
2019-03-18T03:56:38.522Z,996.61
2019-03-18T03:57:39.900Z,996.61
2019-03-18T03:58:41.298Z,996.64
2019-03-18T03:59:42.686Z,996.62
2019-03-18T04:00:44.073Z,996.60
2019-03-18T04:01:45.466Z,996.60
2019-03-18T04:02:46.858Z,996.58
2019-03-18T04:03:48.243Z,996.62
2019-03-18T04:04:49.623Z,996.54
2019-03-18T04:05:51.005Z,996.59
2019-03-18T04:06:52.409Z,996.68
2019-03-18T04:07:53.812Z,996.74
2019-03-18T04:08:55.211Z,996.69
2019-03-18T04:09:56.583Z,996.67
2019-03-18T04:10:57.970Z,996.67
2019-03-18T04:11:59.370Z,996.71
2019-03-18T04:13:00.750Z,996.68
2019-03-18T04:14:02.145Z,996.74
2019-03-18T04:15:03.548Z,996.74
2019-03-18T04:16:04.925Z,996.66
2019-03-18T04:17:06.316Z,996.66
2019-03-18T04:18:07.733Z,996.80
2019-03-18T04:19:09.120Z,996.72
2019-03-18T04:20:10.515Z,996.81
2019-03-18T04:21:11.901Z,996.73
2019-03-18T04:22:13.285Z,996.73
2019-03-18T04:23:14.672Z,996.77
2019-03-18T04:24:16.057Z,996.81
2019-03-18T04:25:17.450Z,996.71
2019-03-18T04:26:18.844Z,996.68
2019-03-18T04:27:20.237Z,996.84
2019-03-18T04:28:21.632Z,996.65
2019-03-18T04:29:23.038Z,996.79
2019-03-18T04:30:24.405Z,996.60
2019-03-18T04:31:25.799Z,996.83
2019-03-18T04:32:27.178Z,996.77
2019-03-18T04:33:28.574Z,996.77
2019-03-18T04:34:29.968Z,996.66
2019-03-18T04:35:31.348Z,996.76
2019-03-18T04:36:32.753Z,996.75
2019-03-18T04:37:34.148Z,996.66
2019-03-18T04:38:35.535Z,996.73
2019-03-18T04:39:36.924Z,996.72
2019-03-18T04:40:38.322Z,996.74
2019-03-18T04:41:39.705Z,996.68
2019-03-18T04:42:41.108Z,996.78
2019-03-18T04:43:42.498Z,996.79
2019-03-18T04:44:43.884Z,996.84
2019-03-18T04:45:45.271Z,996.88
2019-03-18T04:46:46.672Z,996.85
2019-03-18T04:47:48.058Z,996.84
2019-03-18T04:48:49.447Z,996.88
2019-03-18T04:49:50.852Z,996.82
2019-03-18T04:50:52.243Z,996.91
2019-03-18T04:51:53.636Z,996.86
2019-03-18T04:52:55.023Z,996.95
2019-03-18T04:53:56.407Z,996.97
2019-03-18T04:54:57.784Z,996.97
2019-03-18T04:55:59.175Z,997.08
2019-03-18T04:57:00.563Z,996.96
2019-03-18T04:58:01.946Z,997.05
2019-03-18T04:59:03.329Z,997.01
2019-03-18T05:00:04.749Z,997.06
2019-03-18T05:01:06.107Z,996.93
2019-03-18T05:02:07.496Z,997.06
2019-03-18T05:03:08.880Z,996.96
2019-03-18T05:04:10.272Z,997.05
2019-03-18T05:05:11.662Z,997.05
2019-03-18T05:06:13.049Z,997.04
2019-03-18T05:07:14.440Z,997.14
2019-03-18T05:08:15.822Z,997.22
2019-03-18T05:09:17.214Z,997.05
2019-03-18T05:10:18.608Z,997.07
2019-03-18T05:11:19.996Z,997.04
2019-03-18T05:12:21.388Z,997.10
2019-03-18T05:13:22.774Z,996.99
2019-03-18T05:14:24.165Z,997.06
2019-03-18T05:15:25.562Z,997.15
2019-03-18T05:16:26.945Z,997.07
2019-03-18T05:17:28.335Z,997.09
2019-03-18T05:18:29.718Z,997.11
2019-03-18T05:19:31.111Z,997.06
2019-03-18T05:20:32.498Z,997.19
2019-03-18T05:21:33.897Z,997.20
2019-03-18T05:22:35.283Z,997.24
2019-03-18T05:23:36.665Z,997.12
2019-03-18T05:24:38.071Z,997.23
2019-03-18T05:25:39.457Z,997.16
2019-03-18T05:26:40.843Z,997.13
2019-03-18T05:27:42.237Z,997.25
2019-03-18T05:28:43.623Z,997.28
2019-03-18T05:29:45.015Z,997.33
2019-03-18T05:30:46.409Z,997.23
2019-03-18T05:31:47.796Z,997.34
2019-03-18T05:32:49.186Z,997.32
2019-03-18T05:33:50.587Z,997.38
2019-03-18T05:34:51.988Z,997.32
2019-03-18T05:35:53.370Z,997.40
2019-03-18T05:36:54.761Z,997.38
2019-03-18T05:37:56.152Z,997.36
2019-03-18T05:38:57.543Z,997.50
2019-03-18T05:39:58.922Z,997.43
2019-03-18T05:41:00.313Z,997.51
2019-03-18T05:42:01.713Z,997.41
2019-03-18T05:43:03.104Z,997.38
2019-03-18T05:44:04.503Z,997.55
2019-03-18T05:45:05.917Z,997.54
2019-03-18T05:46:07.308Z,997.57
2019-03-18T05:47:08.702Z,997.48
2019-03-18T05:48:10.101Z,997.52
2019-03-18T05:49:11.497Z,997.54
2019-03-18T05:50:12.906Z,997.55
2019-03-18T05:51:14.301Z,997.50
2019-03-18T05:52:15.711Z,997.49
2019-03-18T05:53:17.132Z,997.54
2019-03-18T05:54:18.515Z,997.53
2019-03-18T05:55:19.899Z,997.53
2019-03-18T05:56:21.321Z,997.55
2019-03-18T05:57:22.729Z,997.59
2019-03-18T05:58:24.114Z,997.57
2019-03-18T05:59:25.525Z,997.57
2019-03-18T06:00:26.908Z,997.55
2019-03-18T06:01:28.334Z,997.57
2019-03-18T06:02:29.721Z,997.57
2019-03-18T06:03:31.112Z,997.60
2019-03-18T06:04:32.500Z,997.66
2019-03-18T06:05:33.912Z,997.62
2019-03-18T06:06:35.966Z,997.60
2019-03-18T06:07:37.440Z,997.70
2019-03-18T06:08:38.836Z,997.66
2019-03-18T06:09:40.237Z,997.71
2019-03-18T06:10:42.262Z,997.69
2019-03-18T06:11:43.680Z,997.66
2019-03-18T06:12:45.110Z,997.65
2019-03-18T06:13:46.569Z,997.71
2019-03-18T06:14:47.958Z,997.69
2019-03-18T06:15:49.471Z,997.81
2019-03-18T06:16:50.869Z,997.84
2019-03-18T06:17:53.073Z,998.00
2019-03-18T06:18:53.653Z,997.95
2019-03-18T06:19:55.210Z,997.93
2019-03-18T06:20:56.636Z,998.06
2019-03-18T06:21:58.064Z,997.98
2019-03-18T06:22:59.509Z,997.98
2019-03-18T06:24:00.908Z,997.96
2019-03-18T06:25:02.310Z,997.98
2019-03-18T06:26:03.796Z,997.98
2019-03-18T06:27:05.982Z,997.99
2019-03-18T06:28:07.427Z,998.00
2019-03-18T06:29:08.765Z,997.93
2019-03-18T06:30:10.179Z,998.02
2019-03-18T06:31:11.584Z,998.03
2019-03-18T06:32:13.039Z,998.02
2019-03-18T06:33:14.446Z,998.03
2019-03-18T06:34:15.878Z,998.00
2019-03-18T06:35:20.187Z,998.04
2019-03-18T06:36:18.713Z,998.02
2019-03-18T06:37:20.175Z,998.06
2019-03-18T06:38:21.603Z,998.03
2019-03-18T06:39:23.033Z,998.07
2019-03-18T06:40:24.476Z,998.14
2019-03-18T06:41:25.960Z,998.07
2019-03-18T06:42:27.958Z,998.11
2019-03-18T06:43:29.516Z,998.16
2019-03-18T06:44:30.990Z,998.24
2019-03-18T06:45:32.428Z,998.19
2019-03-18T06:46:33.888Z,998.15
2019-03-18T06:47:35.267Z,998.34
2019-03-18T06:48:36.732Z,998.42
2019-03-18T06:49:38.137Z,998.49
2019-03-18T06:50:39.549Z,998.38
2019-03-18T06:51:40.943Z,998.36
2019-03-18T06:52:42.358Z,998.39
2019-03-18T06:53:43.913Z,998.51
2019-03-18T06:54:45.317Z,998.34
2019-03-18T06:55:46.723Z,998.28
2019-03-18T06:56:48.151Z,998.25
2019-03-18T06:57:49.557Z,998.18
2019-03-18T06:58:50.962Z,998.29
2019-03-18T06:59:52.362Z,998.30
2019-03-18T07:00:53.840Z,998.42
2019-03-18T07:01:55.238Z,998.37
2019-03-18T07:02:56.640Z,998.42
2019-03-18T07:03:58.070Z,998.39
2019-03-18T07:04:59.603Z,998.28
2019-03-18T07:06:00.900Z,998.23
2019-03-18T07:07:02.344Z,998.27
2019-03-18T07:08:03.778Z,998.12
2019-03-18T07:09:05.174Z,998.20
2019-03-18T07:10:06.574Z,998.19
2019-03-18T07:11:07.971Z,998.31
2019-03-18T07:12:09.376Z,998.29
2019-03-18T07:13:10.801Z,998.35
2019-03-18T07:14:12.204Z,998.57
2019-03-18T07:15:13.601Z,998.66
2019-03-18T07:16:15.107Z,998.58
2019-03-18T07:17:16.580Z,998.62
2019-03-18T07:18:18.918Z,998.45
2019-03-18T07:19:19.406Z,998.52
2019-03-18T07:20:20.699Z,998.66
2019-03-18T07:21:22.124Z,998.61
2019-03-18T07:22:23.562Z,998.79
2019-03-18T07:23:24.945Z,998.70
2019-03-18T07:24:26.361Z,998.49
2019-03-18T07:25:27.799Z,998.40
2019-03-18T07:26:29.199Z,998.52
2019-03-18T07:27:30.608Z,998.44
2019-03-18T07:28:32.028Z,998.43
2019-03-18T07:29:33.421Z,998.51
2019-03-18T07:30:34.814Z,998.48
2019-03-18T07:31:36.244Z,998.46
2019-03-18T07:32:37.638Z,998.51
2019-03-18T07:33:39.042Z,998.54
2019-03-18T07:34:40.438Z,998.45
2019-03-18T07:35:41.875Z,998.49
2019-03-18T07:36:43.278Z,998.53
2019-03-18T07:37:44.674Z,998.57
2019-03-18T07:38:46.156Z,998.64
2019-03-18T07:39:47.556Z,998.61
2019-03-18T07:40:48.950Z,998.59
2019-03-18T07:41:50.381Z,998.65
2019-03-18T07:42:51.767Z,998.60
2019-03-18T07:43:53.224Z,998.65
2019-03-18T07:44:54.642Z,998.69
2019-03-18T07:45:56.040Z,998.75
2019-03-18T07:46:57.463Z,998.61
2019-03-18T07:47:58.857Z,998.64
2019-03-18T07:49:00.245Z,998.71
2019-03-18T07:50:01.690Z,998.62
2019-03-18T07:51:03.074Z,998.71
2019-03-18T07:52:04.471Z,998.71
2019-03-18T07:53:05.868Z,998.79
2019-03-18T07:54:07.292Z,998.90
2019-03-18T07:55:08.673Z,998.93
2019-03-18T07:56:10.077Z,998.80
2019-03-18T07:57:11.496Z,998.79
2019-03-18T07:58:12.902Z,998.83
2019-03-18T07:59:14.326Z,998.90
2019-03-18T08:00:15.763Z,998.85
2019-03-18T08:01:18.122Z,998.80
2019-03-18T08:02:19.545Z,998.86
2019-03-18T08:03:20.985Z,999.01
2019-03-18T08:04:22.374Z,999.09
2019-03-18T08:05:23.770Z,999.07
2019-03-18T08:06:25.176Z,999.04
2019-03-18T08:07:26.651Z,999.32
2019-03-18T08:08:28.083Z,999.45
2019-03-18T08:09:29.423Z,999.62
2019-03-18T08:10:30.852Z,999.39
2019-03-18T08:11:32.333Z,999.44
2019-03-18T08:12:33.817Z,1000.25
2019-03-18T08:13:35.229Z,1000.87
2019-03-18T08:14:36.680Z,1003.94
2019-03-18T08:15:38.083Z,1001.28
2019-03-18T08:16:39.499Z,1000.73
2019-03-18T08:17:40.914Z,1000.67
2019-03-18T08:18:43.445Z,1000.38
2019-03-18T08:19:43.699Z,999.92
2019-03-18T08:20:45.106Z,998.93
2019-03-18T08:21:46.513Z,998.93
2019-03-18T08:22:47.989Z,998.96
2019-03-18T08:23:49.387Z,998.90
2019-03-18T08:24:50.858Z,998.94
2019-03-18T08:25:52.261Z,998.93
2019-03-18T08:26:53.725Z,998.99
2019-03-18T08:27:55.152Z,998.96
2019-03-18T08:28:56.552Z,998.98
2019-03-18T08:29:57.956Z,999.00
2019-03-18T08:30:59.423Z,998.90
2019-03-18T08:32:00.826Z,998.84
2019-03-18T08:33:02.239Z,999.03
2019-03-18T08:34:03.644Z,999.00
2019-03-18T08:35:05.049Z,999.06
2019-03-18T08:36:06.463Z,998.93
2019-03-18T08:37:07.861Z,999.02
2019-03-18T08:38:09.276Z,998.99
2019-03-18T08:39:10.686Z,999.10
2019-03-18T08:40:12.114Z,999.09
2019-03-18T08:41:13.521Z,999.19
2019-03-18T08:42:14.929Z,999.10
2019-03-18T08:43:16.333Z,999.14
2019-03-18T08:44:17.723Z,999.13
2019-03-18T08:45:19.125Z,999.14
2019-03-18T08:46:20.547Z,999.16
2019-03-18T08:47:21.945Z,999.18
2019-03-18T08:48:23.375Z,999.23
2019-03-18T08:49:24.769Z,999.23
2019-03-18T08:50:26.163Z,999.26
2019-03-18T08:51:27.576Z,999.23
2019-03-18T08:52:29.004Z,999.23
2019-03-18T08:53:30.422Z,999.28
2019-03-18T08:54:31.880Z,999.25
2019-03-18T08:55:33.302Z,999.31
2019-03-18T08:56:34.743Z,999.40
2019-03-18T08:57:36.226Z,999.31
2019-03-18T08:58:37.718Z,999.38
2019-03-18T08:59:39.076Z,999.34
2019-03-18T09:00:40.489Z,999.42
2019-03-18T09:01:41.934Z,999.44
2019-03-18T09:02:43.384Z,999.38
2019-03-18T09:03:44.837Z,999.42
2019-03-18T09:04:46.260Z,999.37
2019-03-18T09:05:47.731Z,999.47
2019-03-18T09:06:49.141Z,999.49
2019-03-18T09:07:50.551Z,999.47
2019-03-18T09:08:51.969Z,999.48
2019-03-18T09:09:53.361Z,999.41
2019-03-18T09:10:54.826Z,999.40
2019-03-18T09:11:56.251Z,999.40
2019-03-18T09:12:57.642Z,999.39
2019-03-18T09:13:59.044Z,999.41
2019-03-18T09:15:00.453Z,999.38
2019-03-18T09:16:01.932Z,999.48
2019-03-18T09:17:03.370Z,999.55
2019-03-18T09:18:04.808Z,999.53
2019-03-18T09:19:08.851Z,999.49
2019-03-18T09:20:07.595Z,999.50
2019-03-18T09:21:08.989Z,999.48
2019-03-18T09:22:10.406Z,999.57
2019-03-18T09:23:11.804Z,999.45
2019-03-18T09:24:13.278Z,999.55
2019-03-18T09:25:14.794Z,999.52
2019-03-18T09:26:16.173Z,999.63
2019-03-18T09:27:17.585Z,999.61
2019-03-18T09:28:19.082Z,999.55
2019-03-18T09:29:20.488Z,999.52
2019-03-18T09:30:21.884Z,999.57
2019-03-18T09:31:23.379Z,999.70
2019-03-18T09:32:24.693Z,999.53
2019-03-18T09:33:26.116Z,999.47
2019-03-18T09:34:27.509Z,999.59
2019-03-18T09:35:28.990Z,999.55
2019-03-18T09:36:30.273Z,999.63
2019-03-18T09:37:31.676Z,999.57
2019-03-18T09:38:33.065Z,999.65
2019-03-18T09:39:34.454Z,999.69
2019-03-18T09:40:35.863Z,999.50
2019-03-18T09:41:37.251Z,999.68
2019-03-18T09:42:38.641Z,999.78
2019-03-18T09:43:40.035Z,999.71
2019-03-18T09:44:41.426Z,999.75
2019-03-18T09:45:42.829Z,999.83
2019-03-18T09:46:44.232Z,999.78
2019-03-18T09:47:45.622Z,999.77
2019-03-18T09:48:47.014Z,999.90
2019-03-18T09:49:48.414Z,999.79
2019-03-18T09:50:49.809Z,999.91
2019-03-18T09:51:51.203Z,999.76
2019-03-18T09:52:52.590Z,999.82
2019-03-18T09:53:53.994Z,999.83
2019-03-18T09:54:55.391Z,999.75
2019-03-18T09:55:56.793Z,999.66
2019-03-18T09:56:58.191Z,999.76
2019-03-18T09:57:59.578Z,999.80
2019-03-18T09:59:00.988Z,999.89
2019-03-18T10:00:02.378Z,999.89
2019-03-18T10:01:03.779Z,999.97
2019-03-18T10:02:05.196Z,999.90
2019-03-18T10:03:06.592Z,999.96
2019-03-18T10:04:07.991Z,999.86
2019-03-18T10:05:09.386Z,999.81
2019-03-18T10:06:10.785Z,999.77
2019-03-18T10:07:12.187Z,999.88
2019-03-18T10:08:13.603Z,1000.09
2019-03-18T10:09:14.985Z,1000.14
2019-03-18T10:10:16.393Z,1000.20
2019-03-18T10:11:17.791Z,999.91
2019-03-18T10:12:19.181Z,999.91
2019-03-18T10:13:20.577Z,999.97
2019-03-18T10:14:21.978Z,1000.01
2019-03-18T10:15:23.386Z,1000.01
2019-03-18T10:16:24.773Z,1000.64
2019-03-18T10:17:26.170Z,1000.38
2019-03-18T10:18:27.568Z,1000.15
2019-03-18T10:19:33.515Z,1000.29
2019-03-18T10:20:30.327Z,1000.06
2019-03-18T10:21:31.720Z,999.99
2019-03-18T10:22:35.843Z,1000.02
2019-03-18T10:23:34.540Z,1000.14
2019-03-18T10:24:35.814Z,999.96
2019-03-18T10:25:37.206Z,1000.08
2019-03-18T10:26:38.618Z,1000.04
2019-03-18T10:27:40.044Z,1000.08
2019-03-18T10:28:41.465Z,1000.09
2019-03-18T10:29:42.972Z,1000.11
2019-03-18T10:30:44.415Z,1000.18
2019-03-18T10:31:45.842Z,999.94
2019-03-18T10:32:47.253Z,1000.07
2019-03-18T10:33:48.679Z,1000.13
2019-03-18T10:34:50.153Z,1000.12
2019-03-18T10:35:53.938Z,1000.31
2019-03-18T10:36:52.977Z,1000.29
2019-03-18T10:37:54.407Z,1000.43
2019-03-18T10:38:55.873Z,1000.23
2019-03-18T10:39:57.297Z,1000.25
2019-03-18T10:40:59.710Z,1000.21
2019-03-18T10:42:00.116Z,1000.42
2019-03-18T10:43:01.522Z,1000.71
2019-03-18T10:44:02.913Z,1000.65
2019-03-18T10:45:04.351Z,1000.43
2019-03-18T10:46:05.767Z,1000.36
2019-03-18T10:47:07.244Z,1000.41
2019-03-18T10:48:08.652Z,1000.46
2019-03-18T10:49:10.135Z,1000.45
2019-03-18T10:50:11.546Z,1000.58
2019-03-18T10:51:12.999Z,1000.72
2019-03-18T10:52:14.472Z,1000.34
2019-03-18T10:53:15.916Z,1000.26
2019-03-18T10:54:26.223Z,1000.56
2019-03-18T10:55:18.778Z,1000.64
2019-03-18T10:56:20.192Z,1000.57
2019-03-18T10:57:21.629Z,1000.50
2019-03-18T10:58:23.073Z,1000.38
2019-03-18T10:59:24.511Z,1000.51
2019-03-18T11:00:26.038Z,1000.44
2019-03-18T11:01:27.434Z,1000.48
2019-03-18T11:02:28.947Z,1000.51
2019-03-18T11:03:30.381Z,1000.39
2019-03-18T11:04:31.815Z,1000.44
2019-03-18T11:05:33.270Z,1000.52
2019-03-18T11:06:34.715Z,1000.40
2019-03-18T11:07:36.175Z,1000.40
2019-03-18T11:08:37.600Z,1000.55
2019-03-18T11:09:39.043Z,1000.43
2019-03-18T11:10:40.537Z,1000.49
2019-03-18T11:11:41.950Z,1000.59
2019-03-18T11:12:44.367Z,1000.63
2019-03-18T11:13:45.789Z,1000.56
2019-03-18T11:14:47.235Z,1000.80
2019-03-18T11:15:48.670Z,1000.85
2019-03-18T11:16:52.371Z,1000.58
2019-03-18T11:17:51.563Z,1000.77
2019-03-18T11:18:52.976Z,1000.83
2019-03-18T11:19:58.763Z,1000.81
2019-03-18T11:20:55.796Z,1000.82
2019-03-18T11:21:57.222Z,1001.00
2019-03-18T11:22:58.664Z,1000.90
2019-03-18T11:24:00.560Z,1001.10
2019-03-18T11:25:01.990Z,1001.05
2019-03-18T11:26:03.402Z,1001.37
2019-03-18T11:27:04.862Z,1001.54
2019-03-18T11:28:06.259Z,1001.35
2019-03-18T11:29:08.335Z,1001.14
2019-03-18T11:30:09.795Z,1001.00
2019-03-18T11:31:11.195Z,1001.24
2019-03-18T11:32:12.591Z,1001.28
2019-03-18T11:33:13.995Z,1001.19
2019-03-18T11:34:15.401Z,1000.98
2019-03-18T11:35:16.848Z,1000.90
2019-03-18T11:36:18.251Z,1000.84
2019-03-18T11:37:19.669Z,1000.83
2019-03-18T11:38:21.088Z,1000.70
2019-03-18T11:39:22.526Z,1000.57
2019-03-18T11:40:23.977Z,1000.88
2019-03-18T11:41:25.376Z,1000.73
2019-03-18T11:42:26.778Z,1000.95
2019-03-18T11:43:28.218Z,1000.82
2019-03-18T11:44:29.622Z,1000.98
2019-03-18T11:45:31.026Z,1001.03
2019-03-18T11:46:32.466Z,1000.83
2019-03-18T11:47:33.872Z,1000.91
2019-03-18T11:48:35.320Z,1001.01
2019-03-18T11:49:39.918Z,1001.01
2019-03-18T11:50:38.149Z,1001.16
2019-03-18T11:51:39.575Z,1001.20
2019-03-18T11:52:40.994Z,1001.29
2019-03-18T11:53:42.436Z,1001.17
2019-03-18T11:54:43.875Z,1001.15
2019-03-18T11:55:45.291Z,1001.29
2019-03-18T11:56:46.715Z,1001.31
2019-03-18T11:57:48.109Z,1001.21
2019-03-18T11:58:49.526Z,1001.14
2019-03-18T11:59:50.968Z,1001.10
2019-03-18T12:00:52.366Z,1000.92
2019-03-18T12:01:53.771Z,1000.88
2019-03-18T12:02:55.195Z,1000.97
2019-03-18T12:03:56.591Z,1000.97
2019-03-18T12:04:58.048Z,1000.83
2019-03-18T12:05:59.451Z,1000.70
2019-03-18T12:07:00.977Z,1000.65
2019-03-18T12:08:03.182Z,1000.66
2019-03-18T12:09:04.579Z,1000.55
2019-03-18T12:10:05.966Z,1000.59
2019-03-18T12:11:07.376Z,1000.51
2019-03-18T12:12:08.821Z,1000.64
2019-03-18T12:13:10.225Z,1000.61
2019-03-18T12:14:11.632Z,1000.69
2019-03-18T12:15:13.042Z,1000.87
2019-03-18T12:16:14.439Z,1000.83
2019-03-18T12:17:15.882Z,1000.74
2019-03-18T12:18:17.290Z,1000.71
2019-03-18T12:19:18.685Z,1000.75
2019-03-18T12:20:24.700Z,1000.60
2019-03-18T12:21:21.454Z,1000.68
2019-03-18T12:22:22.844Z,1000.67
2019-03-18T12:23:24.266Z,1000.68
2019-03-18T12:24:25.680Z,1000.66
2019-03-18T12:25:27.086Z,1000.82
2019-03-18T12:26:28.483Z,1000.90
2019-03-18T12:27:29.895Z,1000.84
2019-03-18T12:28:31.312Z,1000.92
2019-03-18T12:29:32.725Z,1001.02
2019-03-18T12:30:34.201Z,1001.07
2019-03-18T12:31:35.515Z,1001.15
2019-03-18T12:32:37.689Z,1001.13
2019-03-18T12:33:39.089Z,1001.17
2019-03-18T12:34:40.510Z,1001.03
2019-03-18T12:35:41.880Z,1001.10
2019-03-18T12:36:43.302Z,1001.30
2019-03-18T12:37:44.721Z,1001.24
2019-03-18T12:38:46.169Z,1001.07
2019-03-18T12:39:47.546Z,1001.04
2019-03-18T12:40:48.988Z,1001.07